Time;durP1;ratioP1;P1;durP2;ratioP2;P2;SDS_P1;SDS_P2;PMS_P1;PMS_P2;Temp;Humidity;BMP_temperature;BMP_pressure;BME280_temperature;BME280_humidity;BME280_pressure;Samples;Min_cycle;Max_cycle;Signal;HPM_P1;HPM_P2
2022/12/07 00:00:04;;;;;;;22.08;10.40;;;5.90;99.90;;;5.71;100.00;101159.94;5130350;29;20047;-83
2022/12/07 00:02:36;;;;;;;19.50;9.90;;;5.90;99.90;;;5.72;100.00;101151.38;5129658;28;20110;-82
2022/12/07 00:05:09;;;;;;;19.80;9.57;;;5.90;99.90;;;5.72;100.00;101151.38;5129041;29;20047;-83
2022/12/07 00:07:42;;;;;;;22.52;10.43;;;5.90;99.90;;;5.75;100.00;101149.81;5132119;28;20049;-82
2022/12/07 00:10:14;;;;;;;23.63;10.60;;;5.90;99.90;;;5.75;100.00;101149.81;5132673;29;20079;-83
2022/12/07 00:12:47;;;;;;;23.90;11.80;;;6.00;99.90;;;5.73;100.00;101153.16;5132293;28;20051;-83
2022/12/07 00:15:19;;;;;;;25.45;12.02;;;6.00;99.90;;;5.70;100.00;101149.53;5132460;29;20058;-84
2022/12/07 00:17:51;;;;;;;21.95;10.70;;;5.90;99.90;;;5.73;100.00;101147.09;5132549;29;20047;-82
2022/12/07 00:20:23;;;;;;;19.25;9.70;;;5.90;99.90;;;5.76;100.00;101149.88;5132651;29;20074;-83
2022/12/07 00:22:56;;;;;;;22.90;10.43;;;6.00;99.90;;;5.78;100.00;101150.88;5133568;28;20044;-84
2022/12/07 00:25:29;;;;;;;25.55;11.85;;;6.00;99.90;;;5.75;100.00;101149.81;5132078;29;20067;-83
2022/12/07 00:28:01;;;;;;;24.73;10.63;;;6.00;99.90;;;5.70;100.00;101136.59;5133827;29;20047;-83
2022/12/07 00:30:33;;;;;;;20.92;9.63;;;6.00;99.90;;;5.75;100.00;101140.34;5133985;28;20046;-84
2022/12/07 00:33:05;;;;;;;19.23;9.52;;;6.00;99.90;;;5.77;100.00;101137.84;5133427;28;20043;-85
2022/12/07 00:35:37;;;;;;;19.33;9.77;;;6.00;99.90;;;5.78;100.00;101139.63;5133593;29;20051;-83
2022/12/07 00:38:10;;;;;;;21.40;10.20;;;6.00;99.90;;;5.78;100.00;101131.88;5133380;28;20047;-84
2022/12/07 00:40:42;;;;;;;21.75;10.60;;;6.00;99.90;;;5.79;100.00;101131.06;5131922;28;20473;-83
2022/12/07 00:43:14;;;;;;;22.30;10.82;;;6.00;99.90;;;5.81;100.00;101124.31;5131613;28;20057;-83
2022/12/07 00:45:46;;;;;;;25.15;11.80;;;6.00;99.90;;;5.79;100.00;101128.47;5131772;28;20059;-83
2022/12/07 00:48:19;;;;;;;19.92;9.40;;;6.00;99.90;;;5.79;100.00;101128.47;5133584;29;20098;-84
2022/12/07 00:50:51;;;;;;;25.52;11.18;;;6.00;99.90;;;5.77;100.00;101136.16;5132296;28;20054;-83
2022/12/07 00:53:25;;;;;;;22.92;10.77;;;6.00;99.90;;;5.76;100.00;101130.88;5132861;28;20057;-83
2022/12/07 00:55:57;;;;;;;21.55;11.27;;;6.00;99.90;;;5.71;100.00;101123.75;5131826;29;20094;-83
2022/12/07 00:58:29;;;;;;;22.23;10.82;;;6.00;99.90;;;5.77;100.00;101117.16;5132253;29;20146;-83
2022/12/07 01:01:02;;;;;;;24.45;11.05;;;6.00;99.90;;;5.78;100.00;101117.22;5132051;28;20054;-82
2022/12/07 01:03:35;;;;;;;19.25;9.30;;;6.00;99.90;;;5.80;100.00;101117.31;5132248;28;20051;-84
2022/12/07 01:06:07;;;;;;;22.70;11.50;;;6.00;99.90;;;5.79;100.00;101115.53;5134442;29;20055;-82
2022/12/07 01:08:41;;;;;;;24.38;10.40;;;6.00;99.90;;;5.79;100.00;101110.34;5133944;28;20046;-84
2022/12/07 01:11:16;;;;;;;19.20;9.90;;;6.00;99.90;;;5.81;100.00;101117.44;5133182;28;20054;-84
2022/12/07 01:13:50;;;;;;;20.52;8.80;;;6.00;99.90;;;5.81;100.00;101113.94;5132859;28;20062;-83
2022/12/07 01:16:26;;;;;;;18.80;8.52;;;6.00;99.90;;;5.85;100.00;101118.47;5132420;29;20039;-83
2022/12/07 01:18:59;;;;;;;17.75;8.63;;;6.00;99.90;;;5.86;100.00;101110.81;5130130;28;20050;-84
2022/12/07 01:21:37;;;;;;;18.52;9.38;;;6.10;99.90;;;5.89;100.00;101113.59;5130664;28;20101;-84
2022/12/07 01:24:12;;;;;;;18.48;9.13;;;6.10;99.90;;;5.87;100.00;101115.19;5132447;28;20138;-83
2022/12/07 01:26:44;;;;;;;20.30;10.00;;;6.10;99.90;;;5.83;100.00;101122.69;5131279;28;20053;-83
2022/12/07 01:29:16;;;;;;;23.52;10.88;;;6.10;99.90;;;5.82;100.00;101126.09;5131658;28;20051;-83
2022/12/07 01:31:50;;;;;;;23.77;10.68;;;6.00;99.90;;;5.79;100.00;101131.06;5131059;28;20055;-83
2022/12/07 01:34:23;;;;;;;26.83;11.60;;;6.10;99.90;;;5.77;100.00;101124.91;5147662;28;20434;-83
2022/12/07 01:36:55;;;;;;;25.55;12.02;;;6.00;99.90;;;5.78;100.00;101125.00;5132429;28;20039;-84
2022/12/07 01:39:29;;;;;;;25.85;11.35;;;6.00;99.90;;;5.75;100.00;101130.00;5131680;28;20051;-83
2022/12/07 01:42:01;;;;;;;24.63;10.60;;;6.00;99.90;;;5.72;100.00;101122.94;5131933;29;20394;-83
2022/12/07 01:44:33;;;;;;;23.98;11.23;;;6.00;99.90;;;5.72;100.00;101119.44;5131653;28;20040;-82
2022/12/07 01:47:05;;;;;;;24.60;11.57;;;6.00;99.90;;;5.72;100.00;101127.22;5130351;29;20066;-83
2022/12/07 01:49:42;;;;;;;24.42;12.27;;;6.00;99.90;;;5.72;100.00;101124.63;5130647;29;20079;-82
2022/12/07 01:52:19;;;;;;;26.20;12.02;;;6.00;99.90;;;5.72;100.00;101124.63;5132347;28;20081;-83
2022/12/07 01:54:57;;;;;;;24.92;11.75;;;6.00;99.90;;;5.72;100.00;101124.63;5139272;28;20035;-86
2022/12/07 01:57:30;;;;;;;26.10;12.13;;;6.00;99.90;;;5.70;100.00;101121.97;5146244;28;20051;-86
2022/12/07 02:00:06;;;;;;;25.17;11.55;;;6.00;99.90;;;5.72;100.00;101122.94;5138427;28;20138;-82
2022/12/07 02:02:52;;;;;;;26.08;12.95;;;6.00;99.90;;;5.69;100.00;101115.00;5137636;28;20058;-84
2022/12/07 02:05:26;;;;;;;27.42;13.13;;;6.00;99.90;;;5.69;100.00;101115.00;5136694;28;20051;-84
2022/12/07 02:08:00;;;;;;;23.73;12.00;;;6.00;99.90;;;5.70;100.00;101103.84;5136250;29;20062;-84
2022/12/07 02:10:34;;;;;;;31.85;13.25;;;5.90;99.90;;;5.68;100.00;101091.63;5137530;29;20046;-85
2022/12/07 02:13:11;;;;;;;26.23;12.57;;;6.00;99.90;;;5.70;100.00;101098.69;5135796;28;20051;-85
2022/12/07 02:16:00;;;;;;;27.17;12.90;;;5.90;99.90;;;5.70;100.00;101098.69;5135345;29;20111;-84
2022/12/07 02:18:50;;;;;;;24.25;11.80;;;6.00;99.90;;;5.71;100.00;101100.47;5134328;29;20143;-83
2022/12/07 02:21:36;;;;;;;25.27;11.57;;;6.00;99.90;;;5.72;100.00;101093.59;5135556;29;20051;-85
2022/12/07 02:24:39;;;;;;;28.25;12.52;;;6.00;99.90;;;5.71;100.00;101092.69;5134249;28;20058;-84
2022/12/07 02:27:39;;;;;;;24.75;11.90;;;6.00;99.90;;;5.75;100.00;101090.31;5136537;29;20047;-84
2022/12/07 02:30:14;;;;;;;32.45;14.48;;;6.00;99.90;;;5.74;100.00;101097.19;5134384;28;20051;-84
2022/12/07 02:32:56;;;;;;;31.38;13.52;;;6.00;99.90;;;5.72;100.00;101102.22;5135463;28;20047;-82
2022/12/07 02:35:32;;;;;;;;;;;6.00;99.90;;;5.72;100.00;101094.47;5133612;29;20061;-83
2022/12/07 02:38:13;;;;;;;31.25;13.07;;;6.00;99.90;;;5.67;100.00;101085.59;5130026;29;19930;-82
2022/12/07 02:40:53;;;;;;;25.35;12.27;;;6.00;99.90;;;5.69;100.00;101094.31;5145075;28;20058;-83
2022/12/07 02:43:28;;;;;;;24.35;11.85;;;6.00;99.90;;;5.71;100.00;101094.41;5128777;28;20141;-83
2022/12/07 02:46:07;;;;;;;26.08;11.68;;;6.00;99.90;;;5.71;100.00;101096.97;5130209;28;20047;-82
2022/12/07 02:48:41;;;;;;;28.15;12.90;;;6.00;99.90;;;5.69;100.00;101083.97;5128261;29;20047;-84
2022/12/07 02:51:13;;;;;;;27.58;13.18;;;6.00;99.90;;;5.68;100.00;101082.19;5128902;28;20055;-82
2022/12/07 02:53:45;;;;;;;25.45;12.13;;;6.00;99.90;;;5.68;100.00;101089.94;5128138;28;20055;-84
2022/12/07 02:56:31;;;;;;;22.50;11.10;;;5.90;99.90;;;5.69;100.00;101078.78;5128716;28;20043;-83
2022/12/07 02:59:17;;;;;;;22.20;10.65;;;5.90;99.90;;;5.70;100.00;101085.75;5130949;28;20428;-84
2022/12/07 03:02:02;;;;;;;29.10;12.65;;;6.00;99.90;;;5.69;100.00;101078.78;5149687;28;20032;-86
2022/12/07 03:04:45;;;;;;;26.85;12.27;;;5.90;99.90;;;5.67;100.00;101085.59;5137743;28;20054;-83
2022/12/07 03:07:29;;;;;;;23.13;11.85;;;5.90;99.90;;;5.66;100.00;101073.41;5130459;29;20071;-85
2022/12/07 03:10:10;;;;;;;27.88;11.68;;;5.90;99.90;;;5.66;100.00;101083.75;5130055;29;20059;-84
2022/12/07 03:12:54;;;;;;;27.63;12.57;;;5.90;99.90;;;5.66;100.00;101078.59;5130473;28;20054;-85
2022/12/07 03:15:33;;;;;;;23.95;12.20;;;5.90;99.90;;;5.63;100.00;101083.59;5129173;29;20067;-83
2022/12/07 03:18:08;;;;;;;26.75;11.52;;;5.90;99.90;;;5.62;100.00;101087.00;5131929;28;20094;-83
2022/12/07 03:20:43;;;;;;;22.48;10.93;;;5.90;99.90;;;5.63;100.00;101087.88;5131434;29;20047;-83
2022/12/07 03:23:17;;;;;;;24.75;10.57;;;5.90;99.90;;;5.64;100.00;101090.56;5132147;28;20098;-83
2022/12/07 03:25:55;;;;;;;23.08;11.82;;;5.90;99.90;;;5.65;100.00;101086.28;5131887;29;20111;-83
2022/12/07 03:28:33;;;;;;;29.00;12.15;;;5.90;99.90;;;5.65;100.00;101092.34;5132548;29;20051;-83
2022/12/07 03:31:12;;;;;;;23.92;10.43;;;5.90;99.90;;;5.66;100.00;101095.81;5138665;29;20055;-83
2022/12/07 03:33:57;;;;;;;26.98;11.73;;;5.90;99.90;;;5.67;100.00;101085.59;5160999;28;20110;-85
2022/12/07 03:36:35;;;;;;;26.75;12.10;;;6.00;99.90;;;5.68;100.00;101086.47;5143904;29;20047;-83
2022/12/07 03:39:18;;;;;;;25.10;11.75;;;6.00;99.90;;;5.68;100.00;101083.88;5129056;29;20047;-83
2022/12/07 03:41:52;;;;;;;25.90;11.55;;;6.00;99.90;;;5.67;100.00;101077.81;5129424;29;20051;-84
2022/12/07 03:44:25;;;;;;;24.45;11.95;;;6.00;99.90;;;5.66;100.00;101083.75;5128490;28;20051;-82
2022/12/07 03:47:04;;;;;;;24.58;11.57;;;6.00;99.90;;;5.68;100.00;101081.28;5128916;29;20478;-83
2022/12/07 03:49:45;;;;;;;27.08;12.98;;;6.00;99.90;;;5.69;100.00;101083.97;5129190;29;20051;-83
2022/12/07 03:52:24;;;;;;;25.38;12.38;;;6.00;99.90;;;5.67;100.00;101080.41;5129063;28;20055;-83
2022/12/07 03:55:01;;;;;;;26.90;11.52;;;6.00;99.90;;;5.69;100.00;101083.06;5130620;28;20551;-82
2022/12/07 03:57:36;;;;;;;24.15;11.07;;;5.90;99.90;;;5.70;100.00;101087.44;5128572;29;20051;-83
2022/12/07 04:00:10;;;;;;;26.95;11.68;;;6.00;99.90;;;5.68;100.00;101087.34;5130792;28;20044;-83
2022/12/07 04:02:45;;;;;;;20.67;10.40;;;5.90;99.90;;;5.70;100.00;101083.16;5131603;28;20047;-82
2022/12/07 04:05:19;;;;;;;21.98;9.98;;;6.00;99.90;;;5.71;100.00;101084.94;5128168;29;20109;-85
2022/12/07 04:07:52;;;;;;;22.73;9.80;;;6.00;99.90;;;5.73;100.00;101085.91;5129446;29;20474;-83
2022/12/07 04:10:24;;;;;;;24.77;11.43;;;6.00;99.90;;;5.73;100.00;101087.59;5129396;29;20536;-84
2022/12/07 04:12:56;;;;;;;22.95;10.63;;;6.00;99.90;;;5.75;100.00;101088.59;5130177;28;20044;-83
2022/12/07 04:15:28;;;;;;;26.00;11.43;;;6.00;99.90;;;5.74;100.00;101086.84;5127403;29;20505;-85
2022/12/07 04:18:00;;;;;;;27.05;11.88;;;6.00;99.90;;;5.74;100.00;101086.84;5140619;28;20053;-84
2022/12/07 04:20:34;;;;;;;25.30;11.35;;;6.00;99.90;;;5.75;100.00;101096.38;5149016;28;20516;-83
2022/12/07 04:23:06;;;;;;;21.35;10.45;;;6.00;99.90;;;5.75;100.00;101093.78;5148300;28;20046;-84
2022/12/07 04:25:38;;;;;;;21.00;10.35;;;6.00;99.90;;;5.76;100.00;101099.84;5149442;28;20058;-84
2022/12/07 04:28:10;;;;;;;22.90;10.90;;;6.00;99.90;;;5.77;100.00;101093.88;5149837;28;20035;-85
2022/12/07 04:30:42;;;;;;;20.20;9.23;;;6.00;99.90;;;5.79;100.00;101087.97;5149933;28;20133;-84
2022/12/07 04:33:14;;;;;;;21.52;9.60;;;6.00;99.90;;;5.82;100.00;101090.75;5149058;28;20114;-84
2022/12/07 04:35:48;;;;;;;20.48;9.40;;;6.10;99.90;;;5.82;100.00;101082.09;5149929;28;20043;-83
2022/12/07 04:38:20;;;;;;;19.73;9.85;;;6.10;99.90;;;5.82;100.00;101082.09;5148425;28;20109;-82
2022/12/07 04:40:52;;;;;;;18.58;8.45;;;6.10;99.90;;;5.82;100.00;101079.50;5147995;28;20050;-83
2022/12/07 04:43:24;;;;;;;16.67;8.77;;;6.10;99.90;;;5.83;100.00;101083.88;5147877;28;20051;-81
2022/12/07 04:45:56;;;;;;;23.35;10.10;;;6.10;99.90;;;5.85;100.00;101083.16;5149046;28;20134;-83
2022/12/07 04:48:28;;;;;;;22.13;10.02;;;6.10;99.90;;;5.83;100.00;101086.47;5148215;28;20058;-82
2022/12/07 04:51:04;;;;;;;21.00;10.02;;;6.10;99.90;;;5.80;100.00;101075.91;5147989;28;20047;-82
2022/12/07 04:53:36;;;;;;;24.83;11.05;;;6.00;99.90;;;5.76;100.00;101073.97;5148628;28;20105;-83
2022/12/07 04:56:08;;;;;;;23.25;11.32;;;6.10;99.90;;;5.76;100.00;101073.97;5150990;28;20520;-83
2022/12/07 04:58:40;;;;;;;23.00;10.60;;;6.00;99.90;;;5.74;100.00;101071.31;5151145;28;20039;-83
2022/12/07 05:01:13;;;;;;;23.17;9.77;;;6.00;99.90;;;5.77;100.00;101070.59;5151359;28;20054;-83
2022/12/07 05:03:46;;;;;;;19.42;8.85;;;6.00;99.90;;;5.77;100.00;101073.16;5152037;28;20039;-83
2022/12/07 05:06:20;;;;;;;20.60;10.27;;;6.00;99.90;;;5.76;100.00;101073.97;5151073;28;20050;-83
2022/12/07 05:08:52;;;;;;;18.88;9.15;;;6.00;99.90;;;5.76;100.00;101073.97;5152910;28;20051;-83
2022/12/07 05:14:14;;;;;;;20.77;9.52;;;6.00;99.90;;;5.76;100.00;101079.16;5147592;28;20086;-83
2022/12/07 05:16:48;;;;;;;20.05;9.38;;;6.00;99.90;;;5.75;100.00;101082.53;5152691;28;20047;-83
2022/12/07 05:19:21;;;;;;;23.45;11.70;;;6.00;99.90;;;5.73;100.00;101085.91;5152696;28;20193;-82
2022/12/07 05:21:54;;;;;;;23.42;9.90;;;6.00;99.90;;;5.73;100.00;101091.09;5150843;28;20049;-83
2022/12/07 05:24:27;;;;;;;25.77;10.63;;;6.00;99.90;;;5.75;100.00;101098.97;5151483;28;20074;-82
2022/12/07 05:26:59;;;;;;;22.25;11.23;;;6.00;99.90;;;5.75;100.00;101095.47;5150796;28;20428;-82
2022/12/07 05:29:31;;;;;;;20.55;9.85;;;6.00;99.90;;;5.71;100.00;101087.53;5150406;28;20047;-83
2022/12/07 05:32:03;;;;;;;22.75;10.18;;;6.00;99.90;;;5.71;100.00;101084.03;5150276;28;20051;-83
2022/12/07 05:34:35;;;;;;;23.23;10.95;;;6.00;99.90;;;5.71;100.00;101086.63;5150837;28;20154;-83
2022/12/07 05:37:09;;;;;;;23.63;11.45;;;6.00;99.90;;;5.67;100.00;101085.59;5150279;28;20050;-82
2022/12/07 05:39:42;;;;;;;20.42;9.38;;;6.00;99.90;;;5.69;100.00;101088.25;5152251;28;20078;-82
2022/12/07 05:42:14;;;;;;;22.35;10.25;;;5.90;99.90;;;5.69;100.00;101083.97;5151673;28;20042;-82
2022/12/07 05:44:48;;;;;;;21.52;8.95;;;6.00;99.90;;;5.72;100.00;101084.13;5227183;22;20039;-71
2022/12/07 05:47:20;;;;;;;23.70;10.38;;;6.00;99.90;;;5.73;100.00;101079.84;5144941;28;20058;-70
2022/12/07 05:49:52;;;;;;;20.20;10.00;;;6.00;99.90;;;5.73;100.00;101080.72;5143706;28;20519;-70
2022/12/07 05:52:25;;;;;;;27.63;11.38;;;6.00;99.90;;;5.72;100.00;101084.13;5145481;28;20058;-71
2022/12/07 05:54:58;;;;;;;25.70;11.50;;;5.90;99.90;;;5.70;100.00;101077.09;5144704;28;20053;-70
2022/12/07 05:57:30;;;;;;;21.65;10.20;;;5.90;99.90;;;5.69;100.00;101073.63;5145097;28;20043;-71
2022/12/07 06:00:02;;;;;;;20.35;9.55;;;5.90;99.90;;;5.68;100.00;101084.78;5151183;28;20139;-70
2022/12/07 06:02:44;;;;;;;28.35;12.60;;;5.90;99.90;;;5.67;100.00;101077.81;5165207;28;20050;-71
2022/12/07 06:05:16;;;;;;;22.67;10.93;;;5.90;99.90;;;5.67;100.00;101085.59;5163948;28;20106;-70
2022/12/07 06:07:50;;;;;;;24.33;11.35;;;5.90;99.90;;;5.66;100.00;101077.69;5165220;28;20042;-68
2022/12/07 06:10:22;;;;;;;24.65;9.73;;;5.90;99.90;;;5.65;100.00;101084.56;5163686;28;20046;-71
2022/12/07 06:12:53;;;;;;;26.15;11.63;;;5.90;99.90;;;5.63;100.00;101081.00;5165047;28;20046;-70
2022/12/07 06:15:26;;;;;;;22.77;10.65;;;5.90;99.90;;;5.61;100.00;101077.47;5143808;28;20090;-70
2022/12/07 06:17:59;;;;;;;23.45;10.85;;;5.90;99.90;;;5.61;100.00;101061.06;5144644;28;20038;-69
2022/12/07 06:20:31;;;;;;;23.30;9.68;;;5.80;99.90;;;5.57;100.00;101078.06;5144383;28;20125;-69
2022/12/07 06:23:06;;;;;;;20.35;9.45;;;5.80;99.90;;;5.54;100.00;101072.72;5145163;28;20126;-69
2022/12/07 06:25:38;;;;;;;19.83;8.52;;;5.80;99.90;;;5.51;100.00;101082.88;5143110;28;20054;-70
2022/12/07 06:28:10;;;;;;;15.55;7.28;;;5.80;99.90;;;5.49;100.00;101081.91;5142557;28;20054;-70
2022/12/07 06:30:42;;;;;;;17.55;8.18;;;5.80;99.90;;;5.46;100.00;101089.47;5136409;28;20062;-71
2022/12/07 06:33:14;;;;;;;13.73;7.00;;;5.70;99.90;;;5.43;100.00;101099.63;5144801;28;20047;-71
2022/12/07 06:35:47;;;;;;;14.23;5.63;;;5.70;99.90;;;5.41;100.00;101094.38;5144130;28;20451;-70
2022/12/07 06:38:22;;;;;;;17.30;7.30;;;5.70;99.90;;;5.40;100.00;101094.25;5144402;28;20094;-69
2022/12/07 06:40:54;;;;;;;15.00;7.13;;;5.70;99.90;;;5.38;100.00;101094.16;5144521;28;20066;-69
2022/12/07 06:43:27;;;;;;;13.23;6.32;;;5.60;99.90;;;5.38;100.00;101099.34;5143248;28;20419;-69
2022/12/07 06:45:59;;;;;;;13.82;6.75;;;5.60;99.90;;;5.36;100.00;101102.66;5143609;28;20054;-70
2022/12/07 06:48:32;;;;;;;15.45;6.72;;;5.60;99.90;;;5.35;100.00;101103.44;5143163;28;20089;-70
2022/12/07 06:51:04;;;;;;;14.55;6.90;;;5.60;99.90;;;5.36;100.00;101107.81;5144201;28;20043;-69
2022/12/07 06:53:39;;;;;;;16.63;7.53;;;5.60;99.90;;;5.33;100.00;101103.34;5143915;28;20051;-70
2022/12/07 06:56:12;;;;;;;14.68;7.22;;;5.60;99.90;;;5.32;100.00;101100.66;5144754;28;20070;-71
2022/12/07 06:58:44;;;;;;;16.55;7.88;;;5.60;99.90;;;5.32;100.00;101098.06;5143568;28;20051;-71
2022/12/07 07:01:20;;;;;;;14.70;7.72;;;5.60;99.90;;;5.32;100.00;101098.06;5144477;28;20043;-69
2022/12/07 07:03:52;;;;;;;15.60;6.50;;;5.60;99.90;;;5.31;100.00;101104.06;5142458;28;20046;-65
2022/12/07 07:06:25;;;;;;;14.20;6.40;;;5.60;99.90;;;5.31;100.00;101104.06;5142900;28;20165;-58
2022/12/07 07:08:58;;;;;;;15.80;6.53;;;5.60;99.90;;;5.30;100.00;101103.16;5158468;28;20039;-57
2022/12/07 07:11:30;;;;;;;14.93;7.80;;;5.60;99.90;;;5.28;100.00;101109.03;5143793;28;20072;-60
2022/12/07 07:14:02;;;;;;;17.67;8.35;;;5.50;99.90;;;5.28;100.00;101106.44;5094382;28;20055;-60
2022/12/07 07:16:34;;;;;;;17.33;7.53;;;5.60;99.90;;;5.29;100.00;101110.84;5143058;28;20448;-60
2022/12/07 07:19:06;;;;;;;17.67;7.85;;;5.50;99.90;;;5.32;100.00;101114.47;5143046;28;20046;-57
2022/12/07 07:21:39;;;;;;;16.95;7.97;;;5.60;99.90;;;5.34;100.00;101111.97;5144264;28;20046;-60
2022/12/07 07:24:12;;;;;;;19.17;8.73;;;5.60;99.90;;;5.35;100.00;101117.28;5143743;28;20075;-58
2022/12/07 07:26:44;;;;;;;17.20;7.47;;;5.60;99.90;;;5.54;100.00;101116.69;5143981;28;20047;-58
2022/12/07 07:29:16;;;;;;;24.52;10.52;;;5.80;99.90;;;5.62;100.00;101118.03;5142626;28;20061;-57
2022/12/07 07:31:48;;;;;;;22.13;8.90;;;5.80;99.90;;;5.60;100.00;101114.44;5143380;28;20053;-58
2022/12/07 07:34:20;;;;;;;18.95;9.50;;;5.90;99.90;;;5.59;100.00;101117.81;5143138;28;20070;-58
2022/12/07 07:36:52;;;;;;;20.27;9.05;;;5.80;99.90;;;5.75;100.00;101117.06;5143800;28;20046;-58
2022/12/07 07:39:26;;;;;;;19.60;9.90;;;6.00;99.90;;;5.72;100.00;101115.16;5143788;28;20043;-58
2022/12/07 07:41:58;;;;;;;20.52;9.18;;;6.00;99.90;;;5.69;100.00;101125.34;5143270;28;20050;-60
2022/12/07 07:44:32;;;;;;;20.98;9.18;;;6.00;99.90;;;5.65;100.00;101115.63;5155147;28;20078;-59
2022/12/07 07:47:05;;;;;;;18.85;9.23;;;5.90;99.90;;;5.71;100.00;101121.16;5143096;28;20098;-59
2022/12/07 07:49:37;;;;;;;19.00;8.02;;;6.00;99.90;;;5.71;100.00;101118.56;5142938;28;20404;-58
2022/12/07 07:52:09;;;;;;;18.20;8.20;;;6.00;99.90;;;5.69;100.00;101106.34;5142901;28;20055;-57
2022/12/07 07:54:42;;;;;;;14.40;7.78;;;6.00;99.90;;;5.67;100.00;101114.03;5142336;28;20077;-58
2022/12/07 07:57:14;;;;;;;16.20;7.78;;;5.90;99.90;;;5.69;100.00;101115.00;5143058;28;20043;-58
2022/12/07 07:59:46;;;;;;;17.27;7.47;;;5.90;99.90;;;5.70;100.00;101121.97;5157724;28;20047;-60
2022/12/07 08:02:21;;;;;;;14.93;7.63;;;5.90;99.90;;;5.67;100.00;101121.78;5142812;28;20091;-61
2022/12/07 08:04:54;;;;;;;14.20;6.72;;;5.90;99.90;;;5.68;100.00;101123.56;5142857;28;20461;-60
2022/12/07 08:07:28;;;;;;;14.00;6.75;;;5.90;99.90;;;5.71;100.00;101128.03;5142910;28;20069;-60
2022/12/07 08:10:07;;;;;;;15.82;7.35;;;5.90;99.90;;;5.72;100.00;101129.81;5142714;28;20052;-58
2022/12/07 08:13:10;;;;;;;17.50;7.97;;;5.90;99.90;;;5.71;100.00;101128.03;5142988;28;20072;-59
2022/12/07 08:15:34;;;;;;;16.23;8.05;;;5.90;99.90;;;5.71;100.00;101128.03;5142516;28;20451;-59
2022/12/07 08:18:06;;;;;;;18.42;8.30;;;5.90;99.90;;;5.71;100.00;101128.91;5142788;28;20432;-60
2022/12/07 08:20:39;;;;;;;15.27;7.70;;;5.90;99.90;;;5.75;100.00;101116.19;5143188;28;20077;-58
2022/12/07 08:23:12;;;;;;;17.08;8.55;;;5.90;99.90;;;5.81;100.00;101113.94;5141382;28;20496;-60
2022/12/07 08:25:46;;;;;;;15.07;7.82;;;6.00;99.90;;;5.87;100.00;101109.13;5142594;28;20129;-59
2022/12/07 08:28:18;;;;;;;15.98;7.88;;;6.00;99.90;;;5.93;100.00;101115.59;5143823;28;20039;-60
2022/12/07 08:30:50;;;;;;;16.50;7.68;;;6.10;99.90;;;5.98;100.00;101111.56;5146865;28;20049;-61
2022/12/07 08:33:22;;;;;;;14.90;6.50;;;6.10;99.90;;;6.01;100.00;101112.56;5147134;28;20047;-61
2022/12/07 08:35:55;;;;;;;17.77;8.98;;;6.10;99.90;;;6.01;100.00;101118.63;5145674;28;20083;-58
2022/12/07 08:38:27;;;;;;;17.02;7.63;;;6.20;99.90;;;5.99;100.00;101125.38;5144381;28;20050;-61
2022/12/07 08:41:01;;;;;;;17.95;7.55;;;6.20;99.90;;;5.97;100.00;101125.31;5137726;28;20039;-57
2022/12/07 08:43:34;;;;;;;13.38;6.68;;;6.20;99.90;;;5.99;100.00;101128.88;5145543;28;20122;-59
2022/12/07 08:46:13;;;;;;;15.13;7.28;;;6.20;99.90;;;6.02;100.00;101119.53;5145534;28;20043;-58
2022/12/07 08:48:49;;;;;;;16.02;7.53;;;6.20;99.90;;;6.02;100.00;101130.75;5146235;28;20411;-60
2022/12/07 08:51:23;;;;;;;14.45;7.10;;;6.20;99.90;;;6.02;100.00;101130.75;5146272;28;20058;-62
2022/12/07 08:53:56;;;;;;;14.27;6.97;;;6.20;99.90;;;6.03;100.00;101129.94;5145348;28;20588;-57
2022/12/07 08:56:30;;;;;;;15.60;7.07;;;6.20;99.90;;;6.03;100.00;101126.47;5145715;28;20138;-61
2022/12/07 08:59:02;;;;;;;14.15;7.47;;;6.20;99.90;;;6.04;100.00;101121.38;5145933;28;20043;-59
2022/12/07 09:01:34;;;;;;;14.75;6.70;;;6.20;99.90;;;6.07;100.00;101129.34;5144199;28;20045;-60
2022/12/07 09:04:07;;;;;;;18.77;8.90;;;6.20;99.90;;;6.10;100.00;101119.16;5143924;28;20511;-57
2022/12/07 09:06:39;;;;;;;18.85;8.65;;;6.20;99.90;;;6.13;100.00;101123.59;5144459;28;20046;-59
2022/12/07 09:09:14;;;;;;;17.20;7.63;;;6.30;99.90;;;6.15;100.00;101125.50;5145948;28;20034;-59
2022/12/07 09:11:48;;;;;;;17.52;8.45;;;6.30;99.90;;;6.19;100.00;101131.72;5144298;28;20047;-60
2022/12/07 09:14:20;;;;;;;19.35;8.85;;;6.30;99.90;;;6.20;100.00;101115.41;5145216;28;20410;-57
2022/12/07 09:16:52;;;;;;;18.10;8.90;;;6.40;99.90;;;6.22;100.00;101125.03;5145853;28;20113;-57
2022/12/07 09:19:24;;;;;;;21.50;8.70;;;6.40;99.90;;;6.22;100.00;101119.84;5145853;28;20042;-56
2022/12/07 09:21:56;;;;;;;15.43;7.28;;;6.40;99.90;;;6.25;100.00;101130.38;5145558;28;20057;-59
2022/12/07 09:24:28;;;;;;;18.80;8.68;;;6.40;99.90;;;6.29;100.00;101130.56;5144908;28;20046;-58
2022/12/07 09:27:02;;;;;;;18.75;8.73;;;6.40;99.90;;;6.32;100.00;101130.72;5145832;28;20057;-58
2022/12/07 09:29:34;;;;;;;15.88;7.95;;;6.50;99.90;;;6.36;100.00;101140.47;5145425;28;20515;-58
2022/12/07 09:32:06;;;;;;;17.80;8.05;;;6.50;99.90;;;6.44;100.00;101134.00;5145132;28;20408;-61
2022/12/07 09:34:38;;;;;;;13.75;7.30;;;6.60;99.90;;;6.50;100.00;101131.78;5144854;28;20049;-58
2022/12/07 09:37:11;;;;;;;14.45;6.80;;;6.60;99.90;;;6.56;100.00;101132.13;5145307;28;20047;-60
2022/12/07 09:39:43;;;;;;;16.42;8.27;;;6.70;99.90;;;6.61;100.00;101129.78;5155660;28;20047;-59
2022/12/07 09:42:29;;;;;;;20.45;9.02;;;6.70;99.90;;;6.67;100.00;101131.03;5144901;28;20054;-59
2022/12/07 09:45:03;;;;;;;19.75;9.82;;;6.80;99.90;;;6.67;100.00;101135.31;5143530;28;20046;-59
2022/12/07 09:47:35;;;;;;;15.77;7.07;;;6.80;99.90;;;6.66;100.00;101128.34;5143145;28;20377;-58
2022/12/07 09:50:15;;;;;;;18.83;8.63;;;6.80;99.90;;;6.63;100.00;101128.16;5140652;28;20062;-57
2022/12/07 09:52:49;;;;;;;16.58;8.75;;;6.80;99.90;;;6.60;100.00;101131.50;5138340;28;20054;-58
2022/12/07 09:55:27;;;;;;;17.90;8.40;;;6.80;99.90;;;6.59;100.00;101136.59;5144762;28;20137;-60
2022/12/07 09:58:00;;;;;;;18.10;8.48;;;6.70;99.90;;;6.55;100.00;101126.84;5145408;28;20049;-61
2022/12/07 10:00:32;;;;;;;18.77;8.70;;;6.70;99.90;;;6.55;100.00;101125.16;5145385;28;20122;-59
2022/12/07 10:03:04;;;;;;;17.48;7.82;;;6.80;99.90;;;6.50;100.00;101124.88;5145266;28;20050;-58
2022/12/07 10:05:41;;;;;;;15.57;7.82;;;6.70;99.90;;;6.49;100.00;101123.09;5144564;28;20050;-57
2022/12/07 10:08:15;;;;;;;14.63;7.30;;;6.70;99.90;;;6.48;100.00;101121.34;5145195;28;20731;-58
2022/12/07 10:10:53;;;;;;;15.55;7.57;;;6.70;99.90;;;6.51;100.00;101112.81;5145251;28;20075;-58
2022/12/07 10:13:38;;;;;;;17.25;8.55;;;6.70;99.90;;;6.57;100.00;101115.75;5145466;28;20050;-57
2022/12/07 10:16:38;;;;;;;15.82;7.68;;;6.70;99.90;;;6.67;100.00;101106.81;5144949;28;20050;-58
2022/12/07 10:19:25;;;;;;;15.55;7.63;;;6.80;99.90;;;6.73;100.00;101104.56;5145127;28;20051;-60
2022/12/07 10:22:12;;;;;;;16.27;7.75;;;6.80;99.90;;;6.80;100.00;101098.91;5144273;28;20201;-59
2022/12/07 10:24:47;;;;;;;19.90;8.85;;;6.90;99.90;;;6.82;100.00;101104.19;5144494;28;20557;-59
2022/12/07 10:27:22;;;;;;;16.48;8.07;;;7.00;99.90;;;6.83;100.00;101108.53;5144616;28;20086;-57
2022/12/07 10:29:58;;;;;;;18.80;8.52;;;7.00;99.90;;;6.88;100.00;101105.41;5143398;28;20054;-58
2022/12/07 10:32:34;;;;;;;14.95;7.13;;;7.00;99.90;;;6.93;100.00;101096.19;5159484;28;20050;-57
2022/12/07 10:35:24;;;;;;;15.65;7.55;;;7.10;99.90;;;7.00;100.00;101095.69;5144415;28;20504;-58
2022/12/07 10:37:59;;;;;;;15.68;7.60;;;7.10;99.90;;;7.05;100.00;101098.53;5144730;28;20057;-58
2022/12/07 10:40:34;;;;;;;;;;;7.20;99.90;;;7.08;100.00;101090.91;5144076;28;20531;-58
2022/12/07 10:43:20;;;;;;;16.27;7.60;;;7.20;99.90;;;7.07;100.00;101090.03;5145053;28;19922;-59